sensor_id;sensor_type;location;lat;lon;timestamp;pressure;altitude;pressure_sealevel;temperature;humidity
49341;BME280;35209;51.050;13.678;2023-09-18T00:02:55;153296.13;;;18.30;81.43
49341;BME280;35209;51.050;13.678;2023-09-18T00:07:57;153318.19;;;18.39;81.68
49341;BME280;35209;51.050;13.678;2023-09-18T00:12:58;153296.13;;;18.30;82.05
49341;BME280;35209;51.050;13.678;2023-09-18T00:18:01;153300.00;;;18.32;81.91
49341;BME280;35209;51.050;13.678;2023-09-18T00:23:03;153302.63;;;18.33;81.93
49341;BME280;35209;51.050;13.678;2023-09-18T00:28:05;153307.78;;;18.35;82.48
49341;BME280;35209;51.050;13.678;2023-09-18T00:33:07;153312.97;;;18.37;82.13
49341;BME280;35209;51.050;13.678;2023-09-18T00:38:09;153328.56;;;18.43;82.36
49341;BME280;35209;51.050;13.678;2023-09-18T00:43:11;153358.41;;;18.55;82.14
49341;BME280;35209;51.050;13.678;2023-09-18T00:48:14;153361.03;;;18.56;82.12
49341;BME280;35209;51.050;13.678;2023-09-18T00:53:19;153337.69;;;18.47;82.20
49341;BME280;35209;51.050;13.678;2023-09-18T00:58:22;153332.47;;;18.45;82.30
49341;BME280;35209;51.050;13.678;2023-09-18T01:03:24;153363.63;;;18.57;81.66
49341;BME280;35209;51.050;13.678;2023-09-18T01:08:27;153332.47;;;18.45;82.24
49341;BME280;35209;51.050;13.678;2023-09-18T01:13:46;153320.78;;;18.40;82.77
49341;BME280;35209;51.050;13.678;2023-09-18T01:18:52;153318.19;;;18.39;83.47
49341;BME280;35209;51.050;13.678;2023-09-18T01:23:54;153302.63;;;18.33;83.68
49341;BME280;35209;51.050;13.678;2023-09-18T01:28:56;153315.59;;;18.38;83.74
49341;BME280;35209;51.050;13.678;2023-09-18T01:33:58;153289.59;;;18.28;84.13
49341;BME280;35209;51.050;13.678;2023-09-18T01:39:00;153280.56;;;18.24;84.76
49341;BME280;35209;51.050;13.678;2023-09-18T01:44:02;153275.34;;;18.22;85.45
49341;BME280;35209;51.050;13.678;2023-09-18T01:49:06;153245.44;;;18.10;86.54
49341;BME280;35209;51.050;13.678;2023-09-18T01:54:09;153270.16;;;18.20;86.69
49341;BME280;35209;51.050;13.678;2023-09-18T01:59:11;153254.56;;;18.14;86.71
49341;BME280;35209;51.050;13.678;2023-09-18T02:04:13;153245.44;;;18.10;87.77
49341;BME280;35209;51.050;13.678;2023-09-18T02:09:35;153242.88;;;18.09;87.37
49341;BME280;35209;51.050;13.678;2023-09-18T02:14:37;153261.06;;;18.17;86.49
49341;BME280;35209;51.050;13.678;2023-09-18T02:19:38;153261.06;;;18.17;87.71
49341;BME280;35209;51.050;13.678;2023-09-18T02:24:40;153250.69;;;18.12;88.26
49341;BME280;35209;51.050;13.678;2023-09-18T02:29:42;153248.09;;;18.11;88.89
49341;BME280;35209;51.050;13.678;2023-09-18T02:34:44;153255.84;;;18.14;88.74
49341;BME280;35209;51.050;13.678;2023-09-18T02:39:46;153246.81;;;18.11;89.27
49341;BME280;35209;51.050;13.678;2023-09-18T02:44:48;153228.59;;;18.04;89.87
49341;BME280;35209;51.050;13.678;2023-09-18T02:49:50;153220.81;;;18.01;89.99
49341;BME280;35209;51.050;13.678;2023-09-18T02:54:51;153244.16;;;18.10;89.79
49341;BME280;35209;51.050;13.678;2023-09-18T02:59:53;153237.69;;;18.07;89.83
49341;BME280;35209;51.050;13.678;2023-09-18T03:04:55;153202.66;;;17.94;90.92
49341;BME280;35209;51.050;13.678;2023-09-18T03:09:58;153179.31;;;17.84;91.31
49341;BME280;35209;51.050;13.678;2023-09-18T03:15:00;153200.03;;;17.93;91.29
49341;BME280;35209;51.050;13.678;2023-09-18T03:20:02;153158.53;;;17.76;92.78
49341;BME280;35209;51.050;13.678;2023-09-18T03:25:04;153137.69;;;17.68;93.56
49341;BME280;35209;51.050;13.678;2023-09-18T03:30:07;153188.34;;;17.88;92.41
49341;BME280;35209;51.050;13.678;2023-09-18T03:35:10;153162.41;;;17.78;92.43
49341;BME280;35209;51.050;13.678;2023-09-18T03:40:22;153171.50;;;17.81;93.14
49341;BME280;35209;51.050;13.678;2023-09-18T03:45:24;153163.69;;;17.78;93.86
49341;BME280;35209;51.050;13.678;2023-09-18T03:50:26;153175.38;;;17.83;93.51
49341;BME280;35209;51.050;13.678;2023-09-18T03:55:29;153154.59;;;17.75;94.05
49341;BME280;35209;51.050;13.678;2023-09-18T04:00:31;153145.50;;;17.71;94.57
49341;BME280;35209;51.050;13.678;2023-09-18T04:05:33;153135.13;;;17.67;94.48
49341;BME280;35209;51.050;13.678;2023-09-18T04:10:35;153135.13;;;17.67;94.75
49341;BME280;35209;51.050;13.678;2023-09-18T04:15:38;153132.47;;;17.66;94.91
49341;BME280;35209;51.050;13.678;2023-09-18T04:20:39;153118.22;;;17.60;95.32
49341;BME280;35209;51.050;13.678;2023-09-18T04:25:41;153106.53;;;17.56;96.04
49341;BME280;35209;51.050;13.678;2023-09-18T04:30:43;153101.38;;;17.54;96.42
49341;BME280;35209;51.050;13.678;2023-09-18T04:35:46;153048.16;;;17.33;98.21
49341;BME280;35209;51.050;13.678;2023-09-18T04:40:48;153035.19;;;17.28;98.74
49341;BME280;35209;51.050;13.678;2023-09-18T04:45:50;153040.38;;;17.30;98.01
49341;BME280;35209;51.050;13.678;2023-09-18T04:50:52;152984.56;;;17.08;100.00
49341;BME280;35209;51.050;13.678;2023-09-18T04:55:54;152965.16;;;17.00;100.00
49341;BME280;35209;51.050;13.678;2023-09-18T05:00:57;152904.16;;;16.76;100.00
49341;BME280;35209;51.050;13.678;2023-09-18T05:06:01;152874.31;;;16.64;100.00
49341;BME280;35209;51.050;13.678;2023-09-18T05:11:03;152874.31;;;16.64;100.00
49341;BME280;35209;51.050;13.678;2023-09-18T05:16:05;152883.34;;;16.68;100.00
49341;BME280;35209;51.050;13.678;2023-09-18T05:21:09;152888.56;;;16.70;100.00
49341;BME280;35209;51.050;13.678;2023-09-18T05:26:11;152888.56;;;16.70;100.00
49341;BME280;35209;51.050;13.678;2023-09-18T05:31:13;152994.94;;;17.12;100.00
49341;BME280;35209;51.050;13.678;2023-09-18T05:36:17;153120.81;;;17.61;95.54
49341;BME280;35209;51.050;13.678;2023-09-18T05:41:18;153146.78;;;17.72;95.00
49341;BME280;35209;51.050;13.678;2023-09-18T05:46:23;153200.03;;;17.93;93.92
49341;BME280;35209;51.050;13.678;2023-09-18T05:51:25;153271.47;;;18.21;90.96
49341;BME280;35209;51.050;13.678;2023-09-18T05:56:27;153292.25;;;18.29;89.94
49341;BME280;35209;51.050;13.678;2023-09-18T06:01:29;153316.91;;;18.38;89.24
49341;BME280;35209;51.050;13.678;2023-09-18T06:06:30;153324.66;;;18.41;89.40
49341;BME280;35209;51.050;13.678;2023-09-18T06:11:32;153351.94;;;18.52;88.14
49341;BME280;35209;51.050;13.678;2023-09-18T06:16:34;153424.69;;;18.81;86.98
49341;BME280;35209;51.050;13.678;2023-09-18T06:21:36;153409.13;;;18.75;87.91
49341;BME280;35209;51.050;13.678;2023-09-18T06:26:38;153498.75;;;19.10;86.08
49341;BME280;35209;51.050;13.678;2023-09-18T06:31:39;153536.41;;;19.25;85.39
49341;BME280;35209;51.050;13.678;2023-09-18T06:36:41;153571.50;;;19.38;84.77
49341;BME280;35209;51.050;13.678;2023-09-18T06:41:43;153559.81;;;19.34;84.70
49341;BME280;35209;51.050;13.678;2023-09-18T06:46:46;153607.91;;;19.53;83.27
49341;BME280;35209;51.050;13.678;2023-09-18T06:51:48;153663.84;;;19.75;83.44
49341;BME280;35209;51.050;13.678;2023-09-18T06:56:50;153702.81;;;19.90;81.59
49341;BME280;35209;51.050;13.678;2023-09-18T07:01:52;153765.22;;;20.14;80.39
49341;BME280;35209;51.050;13.678;2023-09-18T07:06:54;153780.81;;;20.21;79.10
49341;BME280;35209;51.050;13.678;2023-09-18T07:11:56;153793.81;;;20.26;80.16
49341;BME280;35209;51.050;13.678;2023-09-18T07:16:57;153840.59;;;20.44;79.65
49341;BME280;35209;51.050;13.678;2023-09-18T07:22:00;153890.09;;;20.63;77.72
49341;BME280;35209;51.050;13.678;2023-09-18T07:27:02;153909.56;;;20.71;78.01
49341;BME280;35209;51.050;13.678;2023-09-18T07:32:05;153982.41;;;21.00;76.08
49341;BME280;35209;51.050;13.678;2023-09-18T07:37:06;154050.06;;;21.26;74.60
49341;BME280;35209;51.050;13.678;2023-09-18T07:42:08;154073.53;;;21.35;74.00
49341;BME280;35209;51.050;13.678;2023-09-18T07:47:10;154149.00;;;21.65;72.96
49341;BME280;35209;51.050;13.678;2023-09-18T07:52:12;154207.56;;;21.88;70.63
49341;BME280;35209;51.050;13.678;2023-09-18T07:57:15;154253.09;;;22.06;70.47
49341;BME280;35209;51.050;13.678;2023-09-18T08:02:17;154272.69;;;22.13;70.55
49341;BME280;35209;51.050;13.678;2023-09-18T08:07:19;154363.81;;;22.49;68.24
49341;BME280;35209;51.050;13.678;2023-09-18T08:12:21;154376.81;;;22.54;67.77
49341;BME280;35209;51.050;13.678;2023-09-18T08:17:23;154458.84;;;22.86;67.16
49341;BME280;35209;51.050;13.678;2023-09-18T08:22:24;154497.94;;;23.02;66.11
49341;BME280;35209;51.050;13.678;2023-09-18T08:27:26;154583.94;;;23.35;64.44
49341;BME280;35209;51.050;13.678;2023-09-18T08:32:28;154655.56;;;23.63;61.98
49341;BME280;35209;51.050;13.678;2023-09-18T08:37:32;154711.63;;;23.85;61.94
49341;BME280;35209;51.050;13.678;2023-09-18T08:42:35;154745.53;;;23.99;60.58
49341;BME280;35209;51.050;13.678;2023-09-18T08:47:39;154806.81;;;24.23;59.92
49341;BME280;35209;51.050;13.678;2023-09-18T08:52:45;154883.75;;;24.53;57.93
49341;BME280;35209;51.050;13.678;2023-09-18T08:57:49;154918.97;;;24.66;57.08
49341;BME280;35209;51.050;13.678;2023-09-18T09:02:51;155004.97;;;25.00;55.84
49341;BME280;35209;51.050;13.678;2023-09-18T09:07:55;155062.41;;;25.23;54.45
49341;BME280;35209;51.050;13.678;2023-09-18T09:12:59;155109.34;;;25.41;54.07
49341;BME280;35209;51.050;13.678;2023-09-18T09:18:06;155117.19;;;25.44;53.32
49341;BME280;35209;51.050;13.678;2023-09-18T09:23:09;155187.63;;;25.72;52.17
49341;BME280;35209;51.050;13.678;2023-09-18T09:28:12;155198.06;;;25.76;52.00
49341;BME280;35209;51.050;13.678;2023-09-18T09:33:14;155186.31;;;25.71;52.10
49341;BME280;35209;51.050;13.678;2023-09-18T09:38:16;155191.56;;;25.73;52.05
49341;BME280;35209;51.050;13.678;2023-09-18T09:43:19;155205.94;;;25.79;52.32
49341;BME280;35209;51.050;13.678;2023-09-18T09:48:21;155234.69;;;25.90;50.34
49341;BME280;35209;51.050;13.678;2023-09-18T09:53:46;155251.63;;;25.97;49.73
49341;BME280;35209;51.050;13.678;2023-09-18T09:59:03;155342.94;;;26.32;50.91
49341;BME280;35209;51.050;13.678;2023-09-18T10:04:16;155472.25;;;26.83;49.28
49341;BME280;35209;51.050;13.678;2023-09-18T10:09:20;155655.06;;;27.54;47.29
49341;BME280;35209;51.050;13.678;2023-09-18T10:14:31;155694.25;;;27.70;46.12
49341;BME280;35209;51.050;13.678;2023-09-18T10:25:24;156070.66;;;29.16;45.30
49341;BME280;35209;51.050;13.678;2023-09-18T10:30:27;156209.34;;;29.71;41.86
49341;BME280;35209;51.050;13.678;2023-09-18T10:35:31;156323.16;;;30.15;41.71
49341;BME280;35209;51.050;13.678;2023-09-18T10:40:34;156442.16;;;30.61;39.89
49341;BME280;35209;51.050;13.678;2023-09-18T10:45:37;156351.91;;;30.26;40.15
49341;BME280;35209;51.050;13.678;2023-09-18T10:50:42;156184.47;;;29.61;43.09
49341;BME280;35209;51.050;13.678;2023-09-18T10:55:45;156108.63;;;29.31;42.85
49341;BME280;35209;51.050;13.678;2023-09-18T11:00:47;155972.63;;;28.78;42.22
49341;BME280;35209;51.050;13.678;2023-09-18T11:06:02;155879.81;;;28.42;41.19
49341;BME280;35209;51.050;13.678;2023-09-18T11:11:08;155785.72;;;28.05;41.60
49341;BME280;35209;51.050;13.678;2023-09-18T11:21:31;155657.69;;;27.55;41.81
49341;BME280;35209;51.050;13.678;2023-09-18T11:26:35;155660.28;;;27.56;43.11
49341;BME280;35209;51.050;13.678;2023-09-18T11:36:42;155759.59;;;27.95;43.65
49341;BME280;35209;51.050;13.678;2023-09-18T11:41:44;155996.16;;;28.87;42.08
49341;BME280;35209;51.050;13.678;2023-09-18T11:46:49;156205.38;;;29.69;40.46
49341;BME280;35209;51.050;13.678;2023-09-18T11:51:54;156307.38;;;30.09;39.83
49341;BME280;35209;51.050;13.678;2023-09-18T11:57:03;156426.47;;;30.55;39.75
49341;BME280;35209;51.050;13.678;2023-09-18T12:02:12;156510.25;;;30.88;37.55
49341;BME280;35209;51.050;13.678;2023-09-18T12:07:22;156482.78;;;30.77;37.40
49341;BME280;35209;51.050;13.678;2023-09-18T12:12:24;156426.47;;;30.55;38.74
49341;BME280;35209;51.050;13.678;2023-09-18T12:17:27;156429.09;;;30.56;37.64
49341;BME280;35209;51.050;13.678;2023-09-18T12:22:30;156324.47;;;30.15;38.95
49341;BME280;35209;51.050;13.678;2023-09-18T12:27:38;156221.09;;;29.75;40.23
49341;BME280;35209;51.050;13.678;2023-09-18T12:32:41;156240.69;;;29.83;40.38
49341;BME280;35209;51.050;13.678;2023-09-18T12:37:44;156253.75;;;29.88;40.66
49341;BME280;35209;51.050;13.678;2023-09-18T12:42:46;156231.53;;;29.79;41.56
49341;BME280;35209;51.050;13.678;2023-09-18T12:47:49;156257.72;;;29.89;41.05
49341;BME280;35209;51.050;13.678;2023-09-18T12:52:51;156275.97;;;29.97;40.58
49341;BME280;35209;51.050;13.678;2023-09-18T12:57:53;156201.47;;;29.68;39.81
49341;BME280;35209;51.050;13.678;2023-09-18T13:02:55;156129.50;;;29.39;41.97
49341;BME280;35209;51.050;13.678;2023-09-18T13:08:02;156089.00;;;29.24;41.78
49341;BME280;35209;51.050;13.678;2023-09-18T13:13:05;156010.50;;;28.93;42.65
49341;BME280;35209;51.050;13.678;2023-09-18T13:18:10;156038.00;;;29.04;42.82
49341;BME280;35209;51.050;13.678;2023-09-18T13:23:15;156040.66;;;29.05;41.74
49341;BME280;35209;51.050;13.678;2023-09-18T13:28:22;156113.81;;;29.33;41.70
49341;BME280;35209;51.050;13.678;2023-09-18T13:33:24;156089.00;;;29.24;42.52
49341;BME280;35209;51.050;13.678;2023-09-18T13:38:27;156071.97;;;29.17;43.89
49341;BME280;35209;51.050;13.678;2023-09-18T13:43:29;156085.09;;;29.22;43.22
49341;BME280;35209;51.050;13.678;2023-09-18T13:48:34;156083.75;;;29.22;42.99
49341;BME280;35209;51.050;13.678;2023-09-18T13:53:37;155975.22;;;28.79;45.38
49341;BME280;35209;51.050;13.678;2023-09-18T13:58:39;155934.69;;;28.63;43.45
49341;BME280;35209;51.050;13.678;2023-09-18T14:03:43;155862.84;;;28.35;44.70
49341;BME280;35209;51.050;13.678;2023-09-18T14:08:47;155790.97;;;28.07;44.08
49341;BME280;35209;51.050;13.678;2023-09-18T14:13:48;155814.47;;;28.16;43.91
49341;BME280;35209;51.050;13.678;2023-09-18T14:18:50;155797.47;;;28.10;45.03
49341;BME280;35209;51.050;13.678;2023-09-18T14:23:52;155690.34;;;27.68;46.16
49341;BME280;35209;51.050;13.678;2023-09-18T14:28:54;155610.69;;;27.37;47.03
49341;BME280;35209;51.050;13.678;2023-09-18T14:33:56;155613.28;;;27.38;47.72
49341;BME280;35209;51.050;13.678;2023-09-18T14:39:00;155584.53;;;27.27;48.54
49341;BME280;35209;51.050;13.678;2023-09-18T14:44:06;155636.78;;;27.47;46.20
49341;BME280;35209;51.050;13.678;2023-09-18T14:49:10;155600.22;;;27.33;46.55
49341;BME280;35209;51.050;13.678;2023-09-18T14:54:12;155567.56;;;27.20;47.03
49341;BME280;35209;51.050;13.678;2023-09-18T14:59:15;155551.94;;;27.14;47.49
49341;BME280;35209;51.050;13.678;2023-09-18T15:04:32;155510.09;;;26.98;48.21
49341;BME280;35209;51.050;13.678;2023-09-18T15:09:37;155453.94;;;26.76;49.52
49341;BME280;35209;51.050;13.678;2023-09-18T15:14:39;155426.50;;;26.65;48.15
49341;BME280;35209;51.050;13.678;2023-09-18T15:19:41;155375.63;;;26.45;48.08
49341;BME280;35209;51.050;13.678;2023-09-18T15:24:44;155282.94;;;26.09;48.33
49341;BME280;35209;51.050;13.678;2023-09-18T15:29:46;155199.41;;;25.76;48.57
49341;BME280;35209;51.050;13.678;2023-09-18T15:34:48;155140.66;;;25.53;48.38
49341;BME280;35209;51.050;13.678;2023-09-18T15:39:49;155044.19;;;25.15;48.09
49341;BME280;35209;51.050;13.678;2023-09-18T15:44:52;155051.97;;;25.19;47.14
49341;BME280;35209;51.050;13.678;2023-09-18T15:49:54;154999.78;;;24.98;47.95
49341;BME280;35209;51.050;13.678;2023-09-18T15:54:57;154956.75;;;24.81;49.01
49341;BME280;35209;51.050;13.678;2023-09-18T15:59:59;154937.19;;;24.74;49.75
49341;BME280;35209;51.050;13.678;2023-09-18T16:05:02;154890.25;;;24.55;51.20
49341;BME280;35209;51.050;13.678;2023-09-18T16:10:08;154830.25;;;24.32;53.14
49341;BME280;35209;51.050;13.678;2023-09-18T16:15:10;154749.47;;;24.00;55.28
49341;BME280;35209;51.050;13.678;2023-09-18T16:20:12;154698.63;;;23.80;56.66
49341;BME280;35209;51.050;13.678;2023-09-18T16:25:14;154628.22;;;23.53;57.65
49341;BME280;35209;51.050;13.678;2023-09-18T16:30:16;154570.91;;;23.30;59.43
49341;BME280;35209;51.050;13.678;2023-09-18T16:35:18;154521.44;;;23.11;61.83
49341;BME280;35209;51.050;13.678;2023-09-18T16:40:20;154432.81;;;22.76;65.45
49341;BME280;35209;51.050;13.678;2023-09-18T16:45:22;154369.00;;;22.51;66.92
49341;BME280;35209;51.050;13.678;2023-09-18T16:50:24;154336.44;;;22.38;68.70
49341;BME280;35209;51.050;13.678;2023-09-18T16:55:26;154272.69;;;22.13;74.64
49341;BME280;35209;51.050;13.678;2023-09-18T17:00:28;154169.78;;;21.73;78.03
49341;BME280;35209;51.050;13.678;2023-09-18T17:05:30;154132.06;;;21.58;80.48
49341;BME280;35209;51.050;13.678;2023-09-18T17:10:32;154074.81;;;21.36;81.81
49341;BME280;35209;51.050;13.678;2023-09-18T17:15:34;153985.00;;;21.01;91.46
49341;BME280;35209;51.050;13.678;2023-09-18T17:20:36;153930.38;;;20.79;93.01
49341;BME280;35209;51.050;13.678;2023-09-18T17:25:37;153912.19;;;20.72;94.71
49341;BME280;35209;51.050;13.678;2023-09-18T17:30:39;153839.31;;;20.44;99.86
49341;BME280;35209;51.050;13.678;2023-09-18T17:35:41;153860.16;;;20.52;98.64
49341;BME280;35209;51.050;13.678;2023-09-18T17:40:47;153826.31;;;20.38;100.00
49341;BME280;35209;51.050;13.678;2023-09-18T17:45:48;153786.00;;;20.23;100.00
49341;BME280;35209;51.050;13.678;2023-09-18T17:50:50;153758.72;;;20.12;100.00
49341;BME280;35209;51.050;13.678;2023-09-18T17:55:52;153786.00;;;20.23;100.00
49341;BME280;35209;51.050;13.678;2023-09-18T18:00:54;153743.13;;;20.06;100.00
49341;BME280;35209;51.050;13.678;2023-09-18T18:05:58;153741.78;;;20.05;100.00
49341;BME280;35209;51.050;13.678;2023-09-18T18:11:00;153692.41;;;19.86;100.00
49341;BME280;35209;51.050;13.678;2023-09-18T18:16:02;153674.19;;;19.79;100.00
49341;BME280;35209;51.050;13.678;2023-09-18T18:21:06;153658.63;;;19.73;100.00
49341;BME280;35209;51.050;13.678;2023-09-18T18:26:09;153665.13;;;19.75;100.00
49341;BME280;35209;51.050;13.678;2023-09-18T18:31:11;153644.34;;;19.67;100.00
49341;BME280;35209;51.050;13.678;2023-09-18T18:36:13;153601.41;;;19.50;100.00
49341;BME280;35209;51.050;13.678;2023-09-18T18:41:15;153609.22;;;19.53;100.00
49341;BME280;35209;51.050;13.678;2023-09-18T18:46:17;153598.81;;;19.49;100.00
49341;BME280;35209;51.050;13.678;2023-09-18T18:51:19;153572.84;;;19.39;100.00
49341;BME280;35209;51.050;13.678;2023-09-18T18:56:22;153523.44;;;19.20;100.00
49341;BME280;35209;51.050;13.678;2023-09-18T19:01:23;153527.31;;;19.21;100.00
49341;BME280;35209;51.050;13.678;2023-09-18T19:06:27;153507.88;;;19.13;100.00
49341;BME280;35209;51.050;13.678;2023-09-18T19:11:29;153516.97;;;19.17;100.00
49341;BME280;35209;51.050;13.678;2023-09-18T19:16:31;153489.66;;;19.06;100.00
49341;BME280;35209;51.050;13.678;2023-09-18T19:21:33;153501.34;;;19.11;100.00
49341;BME280;35209;51.050;13.678;2023-09-18T19:26:35;153441.63;;;18.87;100.00
49341;BME280;35209;51.050;13.678;2023-09-18T19:31:37;153468.88;;;18.98;100.00
49341;BME280;35209;51.050;13.678;2023-09-18T19:36:39;153475.38;;;19.01;100.00
49341;BME280;35209;51.050;13.678;2023-09-18T19:41:41;153496.19;;;19.09;100.00
49341;BME280;35209;51.050;13.678;2023-09-18T19:46:42;153459.78;;;18.95;100.00
49341;BME280;35209;51.050;13.678;2023-09-18T19:51:44;153450.72;;;18.91;100.00
49341;BME280;35209;51.050;13.678;2023-09-18T19:56:46;153437.72;;;18.86;100.00
49341;BME280;35209;51.050;13.678;2023-09-18T20:01:48;153431.22;;;18.83;100.00
49341;BME280;35209;51.050;13.678;2023-09-18T20:06:50;153400.03;;;18.71;100.00
49341;BME280;35209;51.050;13.678;2023-09-18T20:11:54;153342.84;;;18.49;100.00
49341;BME280;35209;51.050;13.678;2023-09-18T20:16:56;153312.97;;;18.37;100.00
49341;BME280;35209;51.050;13.678;2023-09-18T20:21:58;153285.72;;;18.26;100.00
49341;BME280;35209;51.050;13.678;2023-09-18T20:27:03;153279.22;;;18.24;100.00
49341;BME280;35209;51.050;13.678;2023-09-18T20:32:05;153312.97;;;18.37;100.00
49341;BME280;35209;51.050;13.678;2023-09-18T20:37:07;153370.16;;;18.59;100.00
49341;BME280;35209;51.050;13.678;2023-09-18T20:42:09;153328.56;;;18.43;100.00
49341;BME280;35209;51.050;13.678;2023-09-18T20:47:11;153344.16;;;18.49;100.00
49341;BME280;35209;51.050;13.678;2023-09-18T20:52:13;153270.16;;;18.20;100.00
49341;BME280;35209;51.050;13.678;2023-09-18T20:57:15;153326.00;;;18.42;100.00
49341;BME280;35209;51.050;13.678;2023-09-18T21:02:17;153264.94;;;18.18;100.00
49341;BME280;35209;51.050;13.678;2023-09-18T21:07:20;153200.03;;;17.93;100.00
49341;BME280;35209;51.050;13.678;2023-09-18T21:12:22;153198.72;;;17.92;100.00
49341;BME280;35209;51.050;13.678;2023-09-18T21:17:24;153213.03;;;17.98;100.00
49341;BME280;35209;51.050;13.678;2023-09-18T21:22:26;153202.66;;;17.94;100.00
49341;BME280;35209;51.050;13.678;2023-09-18T21:27:28;153142.88;;;17.70;100.00
49341;BME280;35209;51.050;13.678;2023-09-18T21:32:30;153150.66;;;17.73;100.00
49341;BME280;35209;51.050;13.678;2023-09-18T21:37:32;153141.56;;;17.70;100.00
49341;BME280;35209;51.050;13.678;2023-09-18T21:42:33;153154.59;;;17.75;100.00
49341;BME280;35209;51.050;13.678;2023-09-18T21:47:35;153148.09;;;17.72;100.00
49341;BME280;35209;51.050;13.678;2023-09-18T21:52:37;153132.47;;;17.66;100.00
49341;BME280;35209;51.050;13.678;2023-09-18T21:57:39;153120.81;;;17.61;100.00
49341;BME280;35209;51.050;13.678;2023-09-18T22:02:41;153111.75;;;17.58;100.00
49341;BME280;35209;51.050;13.678;2023-09-18T22:07:43;153061.13;;;17.38;100.00
49341;BME280;35209;51.050;13.678;2023-09-18T22:12:44;153110.41;;;17.57;100.00
49341;BME280;35209;51.050;13.678;2023-09-18T22:17:46;153094.88;;;17.51;100.00
49341;BME280;35209;51.050;13.678;2023-09-18T22:22:50;153079.31;;;17.45;100.00
49341;BME280;35209;51.050;13.678;2023-09-18T22:27:52;153084.47;;;17.47;100.00
49341;BME280;35209;51.050;13.678;2023-09-18T22:32:54;153063.72;;;17.39;100.00
49341;BME280;35209;51.050;13.678;2023-09-18T22:54:45;152958.66;;;16.98;100.00
49341;BME280;35209;51.050;13.678;2023-09-18T22:59:48;153015.72;;;17.20;100.00
49341;BME280;35209;51.050;13.678;2023-09-18T23:04:51;153015.72;;;17.20;100.00
49341;BME280;35209;51.050;13.678;2023-09-18T23:09:53;153015.72;;;17.20;100.00
49341;BME280;35209;51.050;13.678;2023-09-18T23:14:58;152932.72;;;16.87;100.00
49341;BME280;35209;51.050;13.678;2023-09-18T23:20:02;152862.59;;;16.60;100.00
49341;BME280;35209;51.050;13.678;2023-09-18T23:25:12;152871.69;;;16.63;100.00
49341;BME280;35209;51.050;13.678;2023-09-18T23:30:18;152887.28;;;16.70;100.00
49341;BME280;35209;51.050;13.678;2023-09-18T23:35:20;153007.91;;;17.17;100.00
49341;BME280;35209;51.050;13.678;2023-09-18T23:40:26;152982.00;;;17.07;100.00
49341;BME280;35209;51.050;13.678;2023-09-18T23:45:34;152914.53;;;16.80;100.00
49341;BME280;35209;51.050;13.678;2023-09-18T23:50:42;152882.06;;;16.68;100.00
49341;BME280;35209;51.050;13.678;2023-09-18T23:55:45;152863.94;;;16.60;100.00
